createdAt,value
2023-03-01T00:00:49.902Z,96959.56
2023-03-01T00:05:52.094Z,96956.16
2023-03-01T00:11:06.236Z,96972.06
2023-03-01T00:16:11.440Z,96936.09
2023-03-01T00:21:14.419Z,96948.91
2023-03-01T00:26:17.670Z,96931.34
2023-03-01T00:31:23.053Z,96946.66
2023-03-01T00:36:31.632Z,96929.56
2023-03-01T00:41:35.933Z,96924.59
2023-03-01T00:46:38.962Z,96913.84
2023-03-01T00:51:43.031Z,96911.06
2023-03-01T00:56:45.356Z,96908.38
2023-03-01T01:01:47.918Z,96900.66
2023-03-01T01:06:50.191Z,96884.84
2023-03-01T01:11:52.755Z,96890.88
2023-03-01T01:16:55.092Z,96893.44
2023-03-01T01:21:57.692Z,96894.09
2023-03-01T01:27:00.373Z,96881.53
2023-03-01T01:32:03.702Z,96885.91
2023-03-01T01:37:09.039Z,96908.03
2023-03-01T01:42:17.646Z,96904.56
2023-03-01T01:47:23.407Z,96888.88
2023-03-01T01:52:33.365Z,96892.91
2023-03-01T01:57:40.529Z,96886.97
2023-03-01T02:02:46.031Z,96901.63
2023-03-01T02:07:50.050Z,96890.72
2023-03-01T02:12:57.492Z,96873.22
2023-03-01T02:18:00.286Z,96886.28
2023-03-01T02:23:02.982Z,96877.34
2023-03-01T02:28:17.480Z,96884.97
2023-03-01T02:33:20.120Z,96841.72
2023-03-01T02:38:23.981Z,96866.41
2023-03-01T02:43:30.582Z,96877.47
2023-03-01T02:48:43.598Z,96864.78
2023-03-01T02:54:05.583Z,96868.16
2023-03-01T02:59:08.755Z,96868.47
2023-03-01T03:04:20.210Z,96875.81
2023-03-01T03:09:24.321Z,96833.75
2023-03-01T03:14:26.811Z,96856.25
2023-03-01T03:19:29.717Z,96866.56
2023-03-01T03:24:39.289Z,96851.59
2023-03-01T03:29:41.661Z,96856.81
2023-03-01T03:34:43.977Z,96847.19
2023-03-01T03:39:46.187Z,96872.22
2023-03-01T03:44:48.432Z,96872.22
2023-03-01T03:49:50.751Z,96873.78
2023-03-01T03:54:52.935Z,96849.03
2023-03-01T03:59:55.105Z,96878.22
2023-03-01T04:04:57.394Z,96866.41
2023-03-01T04:09:59.708Z,96837.25
2023-03-01T04:15:02.710Z,96860.19
2023-03-01T04:20:07.093Z,96855.25
2023-03-01T04:25:09.534Z,96879.03
2023-03-01T04:30:12.274Z,96857.59
2023-03-01T04:35:14.576Z,96868.34
2023-03-01T04:40:17.917Z,96875.00
2023-03-01T04:45:20.468Z,96864.69
2023-03-01T04:50:24.703Z,96854.88
2023-03-01T04:55:30.485Z,96864.69
2023-03-01T05:00:33.288Z,96860.34
2023-03-01T05:05:38.543Z,96860.50
2023-03-01T05:10:42.179Z,96847.72
2023-03-01T05:15:44.541Z,96847.19
2023-03-01T05:20:47.448Z,96858.59
2023-03-01T05:25:50.439Z,96858.13
2023-03-01T05:30:53.093Z,96869.34
2023-03-01T05:35:55.557Z,96877.00
2023-03-01T05:40:57.857Z,96860.28
2023-03-01T05:46:01.262Z,96856.75
2023-03-01T05:51:03.822Z,96867.97
2023-03-01T05:56:07.484Z,96884.25
2023-03-01T06:01:14.739Z,96860.28
2023-03-01T06:06:17.301Z,96859.03
2023-03-01T06:11:20.083Z,96869.16
2023-03-01T06:16:22.243Z,96875.66
2023-03-01T06:21:24.941Z,96882.53
2023-03-01T06:26:27.270Z,96878.66
2023-03-01T06:31:29.807Z,96858.38
2023-03-01T06:36:39.566Z,96894.00
2023-03-01T06:41:45.033Z,96857.41
2023-03-01T06:47:00.273Z,96858.97
2023-03-01T06:52:11.980Z,96826.72
2023-03-01T06:57:16.871Z,96855.94
2023-03-01T07:02:19.715Z,96840.75
2023-03-01T07:07:22.663Z,96847.50
2023-03-01T07:12:24.911Z,96879.97
2023-03-01T07:17:27.147Z,96867.16
2023-03-01T07:22:29.651Z,96862.47
2023-03-01T07:27:31.831Z,96873.28
2023-03-01T07:32:34.154Z,96893.19
2023-03-01T07:37:36.609Z,96885.16
2023-03-01T07:42:38.994Z,96839.03
2023-03-01T07:47:41.306Z,96896.19
2023-03-01T07:52:43.681Z,96895.88
2023-03-01T07:57:46.170Z,96876.34
2023-03-01T08:02:48.323Z,96890.94
2023-03-01T08:07:50.626Z,96876.97
2023-03-01T08:12:54.111Z,96872.53
2023-03-01T08:17:56.581Z,96874.03
2023-03-01T08:22:59.452Z,96876.16
2023-03-01T08:28:01.883Z,96861.41
2023-03-01T08:33:04.428Z,96868.13
2023-03-01T08:38:07.013Z,96883.28
2023-03-01T08:43:09.246Z,96872.97
2023-03-01T08:48:11.502Z,96867.09
2023-03-01T08:53:13.890Z,96861.44
2023-03-01T08:58:16.349Z,96866.97
2023-03-01T09:03:18.535Z,96872.16
2023-03-01T09:08:21.589Z,96873.19
2023-03-01T09:13:26.971Z,96876.59
2023-03-01T09:18:30.284Z,96902.78
2023-03-01T09:23:32.774Z,96854.03
2023-03-01T09:28:35.135Z,96871.53
2023-03-01T09:33:37.401Z,96876.94
2023-03-01T09:38:39.623Z,96859.84
2023-03-01T09:44:15.712Z,96852.22
2023-03-01T09:49:27.444Z,96855.22
2023-03-01T09:54:29.900Z,96867.09
2023-03-01T10:00:00.904Z,96865.06
2023-03-01T10:05:12.535Z,96859.53
2023-03-01T10:10:29.511Z,96840.94
2023-03-01T10:15:45.449Z,96843.69
2023-03-01T10:20:56.456Z,96862.75
2023-03-01T10:26:10.395Z,96841.72
2023-03-01T10:31:23.506Z,96838.63
2023-03-01T10:36:26.196Z,96832.81
2023-03-01T10:41:29.456Z,96815.59
2023-03-01T10:46:35.251Z,96813.97
2023-03-01T10:51:38.414Z,96820.66
2023-03-01T10:56:57.606Z,96823.75
2023-03-01T11:02:29.529Z,96831.50
2023-03-01T11:07:32.696Z,96789.72
2023-03-01T11:12:36.252Z,96816.06
2023-03-01T11:17:53.649Z,96789.97
2023-03-01T11:23:08.352Z,96791.31
2023-03-01T11:28:18.137Z,96775.22
2023-03-01T11:33:46.180Z,96791.53
2023-03-01T11:38:48.861Z,96758.22
2023-03-01T11:44:02.729Z,96765.88
2023-03-01T11:49:20.103Z,96782.94
2023-03-01T11:54:43.490Z,96757.88
2023-03-01T12:00:08.075Z,96762.41
2023-03-01T12:05:38.104Z,96748.59
2023-03-01T12:11:05.001Z,96742.31
2023-03-01T12:16:14.108Z,96767.38
2023-03-01T12:21:32.604Z,96755.06
2023-03-01T12:26:46.301Z,96767.34
2023-03-01T12:32:20.998Z,96731.97
2023-03-01T12:37:37.544Z,96737.41
2023-03-01T12:43:05.084Z,96744.59
2023-03-01T12:48:16.532Z,96759.94
2023-03-01T12:53:32.162Z,96740.28
2023-03-01T12:58:49.569Z,96737.00
2023-03-01T13:04:08.179Z,96744.41
2023-03-01T13:09:31.975Z,96743.75
2023-03-01T13:14:34.351Z,96736.69
2023-03-01T13:19:37.485Z,96733.03
2023-03-01T13:24:43.505Z,96741.50
2023-03-01T13:29:49.408Z,96732.94
2023-03-01T13:34:57.032Z,96739.91
2023-03-01T13:40:05.703Z,96721.66
2023-03-01T13:45:21.609Z,96717.50
2023-03-01T13:50:27.323Z,96733.75
2023-03-01T13:55:45.050Z,96729.47
2023-03-01T14:00:47.688Z,96714.84
2023-03-01T14:06:17.772Z,96725.56
2023-03-01T14:11:30.395Z,96738.50
2023-03-01T14:16:55.625Z,96731.03
2023-03-01T14:22:23.790Z,96721.41
2023-03-01T14:27:34.940Z,96711.97
2023-03-01T14:32:37.509Z,96718.94
2023-03-01T14:37:41.712Z,96708.09
2023-03-01T14:42:43.963Z,96712.47
2023-03-01T14:47:47.173Z,96714.72
2023-03-01T14:52:52.997Z,96723.50
2023-03-01T14:57:55.541Z,96708.50
2023-03-01T15:03:04.877Z,96709.00
2023-03-01T15:08:08.169Z,96721.88
2023-03-01T15:13:27.904Z,96712.47
2023-03-01T15:18:31.460Z,96702.69
2023-03-01T15:23:33.805Z,96700.06
2023-03-01T15:28:52.153Z,96719.44
2023-03-01T15:34:10.012Z,96714.56
2023-03-01T15:39:54.735Z,96713.00
2023-03-01T15:45:24.672Z,96735.06
2023-03-01T15:50:30.772Z,96741.13
2023-03-01T15:55:34.749Z,96736.00
2023-03-01T16:00:37.424Z,96721.53
2023-03-01T16:05:40.233Z,96705.44
2023-03-01T16:10:46.659Z,96716.34
2023-03-01T16:15:48.930Z,96705.56
2023-03-01T16:20:51.137Z,96719.88
2023-03-01T16:25:53.669Z,96720.91
2023-03-01T16:30:56.108Z,96732.81
2023-03-01T16:36:01.344Z,96738.22
2023-03-01T16:41:04.019Z,96757.25
2023-03-01T16:46:15.445Z,96744.31
2023-03-01T16:51:18.942Z,96746.28
2023-03-01T16:56:21.300Z,96735.16
2023-03-01T17:01:25.744Z,96750.41
2023-03-01T17:06:28.444Z,96719.13
2023-03-01T17:11:31.124Z,96734.13
2023-03-01T17:16:33.810Z,96723.25
2023-03-01T17:21:36.205Z,96716.06
2023-03-01T17:26:39.620Z,96717.72
2023-03-01T17:31:42.093Z,96710.66
2023-03-01T17:36:44.480Z,96702.19
2023-03-01T17:41:46.888Z,96706.63
2023-03-01T17:46:49.581Z,96715.84
2023-03-01T17:51:52.052Z,96712.63
2023-03-01T17:56:56.111Z,96712.81
2023-03-01T18:01:59.162Z,96708.66
2023-03-01T18:07:01.500Z,96692.41
2023-03-01T18:12:03.830Z,96702.63
2023-03-01T18:17:12.474Z,96720.72
2023-03-01T18:22:15.448Z,96726.44
2023-03-01T18:27:17.957Z,96730.88
2023-03-01T18:32:20.204Z,96714.47
2023-03-01T18:37:25.141Z,96712.50
2023-03-01T18:42:27.526Z,96712.56
2023-03-01T18:47:30.071Z,96714.22
2023-03-01T18:52:32.490Z,96690.94
2023-03-01T18:57:34.911Z,96704.22
2023-03-01T19:02:40.661Z,96695.81
2023-03-01T19:08:01.737Z,96696.50
2023-03-01T19:13:04.616Z,96702.72
2023-03-01T19:18:08.995Z,96701.31
2023-03-01T19:23:13.526Z,96678.00
2023-03-01T19:28:16.110Z,96675.91
2023-03-01T19:33:18.370Z,96689.72
2023-03-01T19:38:20.603Z,96686.63
2023-03-01T19:43:24.471Z,96699.00
2023-03-01T19:48:26.700Z,96690.84
2023-03-01T19:53:29.152Z,96705.78
2023-03-01T19:58:32.920Z,96698.72
2023-03-01T20:03:36.675Z,96703.72
2023-03-01T20:08:39.407Z,96693.91
2023-03-01T20:13:42.041Z,96708.31
2023-03-01T20:18:44.464Z,96688.72
2023-03-01T20:23:49.605Z,96698.56
2023-03-01T20:28:54.567Z,96719.88
2023-03-01T20:33:58.725Z,96713.72
2023-03-01T20:39:01.056Z,96706.03
2023-03-01T20:44:06.879Z,96710.50
2023-03-01T20:49:10.937Z,96700.28
2023-03-01T20:54:13.480Z,96693.59
2023-03-01T20:59:16.184Z,96690.13
2023-03-01T21:04:18.888Z,96677.50
2023-03-01T21:09:21.292Z,96696.16
2023-03-01T21:14:24.332Z,96687.47
2023-03-01T21:19:26.698Z,96697.22
2023-03-01T21:24:29.027Z,96704.00
2023-03-01T21:29:31.398Z,96709.22
2023-03-01T21:34:34.594Z,96715.91
2023-03-01T21:39:37.279Z,96712.06
2023-03-01T21:44:39.447Z,96703.16
2023-03-01T21:49:41.702Z,96705.06
2023-03-01T21:54:45.091Z,96696.16
2023-03-01T21:59:47.613Z,96706.41
2023-03-01T22:04:59.638Z,96703.72
2023-03-01T22:10:02.212Z,96701.91
2023-03-01T22:15:04.825Z,96703.72
2023-03-01T22:20:08.091Z,96675.25
2023-03-01T22:25:11.995Z,96708.19
2023-03-01T22:30:14.451Z,96695.03
2023-03-01T22:35:16.859Z,96687.63
2023-03-01T22:40:19.054Z,96700.28
2023-03-01T22:45:21.277Z,96702.34
2023-03-01T22:50:23.670Z,96697.56
2023-03-01T22:55:28.084Z,96714.69
2023-03-01T23:00:30.333Z,96708.19
2023-03-01T23:05:32.823Z,96702.88
2023-03-01T23:10:35.110Z,96697.09
2023-03-01T23:15:37.224Z,96704.56
2023-03-01T23:20:39.352Z,96700.19
2023-03-01T23:25:42.022Z,96699.47
2023-03-01T23:30:45.605Z,96693.56
2023-03-01T23:35:47.954Z,96692.50
2023-03-01T23:40:50.139Z,96693.19
2023-03-01T23:45:55.489Z,96702.84
2023-03-01T23:51:04.188Z,96697.34
2023-03-01T23:56:07.203Z,96712.28
